sensor_id;sensor_type;location;lat;lon;timestamp;pressure;altitude;pressure_sealevel;temperature;humidity
12213;BME280;6169;44.158;22.788;2022-11-02T00:03:46;101556.38;;;13.17;56.50
12213;BME280;6169;44.158;22.788;2022-11-02T00:08:48;101549.47;;;12.96;57.51
12213;BME280;6169;44.158;22.788;2022-11-02T00:13:50;101559.31;;;12.78;60.74
12213;BME280;6169;44.158;22.788;2022-11-02T00:18:57;101553.41;;;13.00;59.02
12213;BME280;6169;44.158;22.788;2022-11-02T00:24:01;101548.03;;;12.93;59.21
12213;BME280;6169;44.158;22.788;2022-11-02T00:29:06;101553.66;;;12.98;59.89
12213;BME280;6169;44.158;22.788;2022-11-02T00:34:11;101543.41;;;12.94;59.04
12213;BME280;6169;44.158;22.788;2022-11-02T00:39:13;101539.53;;;12.83;58.87
12213;BME280;6169;44.158;22.788;2022-11-02T00:44:16;101544.63;;;12.79;57.34
12213;BME280;6169;44.158;22.788;2022-11-02T00:49:20;101544.69;;;12.66;56.94
12213;BME280;6169;44.158;22.788;2022-11-02T00:54:22;101547.41;;;12.66;57.18
12213;BME280;6169;44.158;22.788;2022-11-02T00:59:25;101536.31;;;12.43;56.50
12213;BME280;6169;44.158;22.788;2022-11-02T01:04:29;101525.16;;;12.51;56.42
12213;BME280;6169;44.158;22.788;2022-11-02T01:09:31;101518.91;;;12.69;55.84
12213;BME280;6169;44.158;22.788;2022-11-02T01:14:34;101512.47;;;12.63;55.44
12213;BME280;6169;44.158;22.788;2022-11-02T01:19:38;101502.03;;;12.60;55.31
12213;BME280;6169;44.158;22.788;2022-11-02T01:24:41;101490.63;;;12.70;54.58
12213;BME280;6169;44.158;22.788;2022-11-02T01:29:43;101488.56;;;12.65;54.25
12213;BME280;6169;44.158;22.788;2022-11-02T01:34:47;101442.94;;;12.17;55.01
12213;BME280;6169;44.158;22.788;2022-11-02T01:39:50;101493.13;;;12.71;56.98
12213;BME280;6169;44.158;22.788;2022-11-02T01:44:52;101474.56;;;12.62;58.98
12213;BME280;6169;44.158;22.788;2022-11-02T01:50:01;101487.75;;;12.65;56.70
12213;BME280;6169;44.158;22.788;2022-11-02T01:55:09;101481.03;;;12.17;57.08
12213;BME280;6169;44.158;22.788;2022-11-02T02:00:15;101482.59;;;12.31;57.94
12213;BME280;6169;44.158;22.788;2022-11-02T02:05:21;101487.03;;;12.26;57.73
12213;BME280;6169;44.158;22.788;2022-11-02T02:10:24;101310.91;;;11.39;58.50
12213;BME280;6169;44.158;22.788;2022-11-02T02:15:33;101480.31;;;12.53;58.20
12213;BME280;6169;44.158;22.788;2022-11-02T02:20:53;101480.34;;;12.22;57.03
12213;BME280;6169;44.158;22.788;2022-11-02T02:26:34;101466.66;;;12.35;57.35
12213;BME280;6169;44.158;22.788;2022-11-02T02:31:50;101481.03;;;12.86;58.04
12213;BME280;6169;44.158;22.788;2022-11-02T02:36:57;101468.13;;;12.56;56.34
12213;BME280;6169;44.158;22.788;2022-11-02T02:42:05;101470.63;;;12.57;55.09
12213;BME280;6169;44.158;22.788;2022-11-02T02:47:15;101463.44;;;12.63;54.64
12213;BME280;6169;44.158;22.788;2022-11-02T02:52:19;101464.88;;;12.47;54.34
12213;BME280;6169;44.158;22.788;2022-11-02T02:57:25;101465.72;;;12.23;54.68
12213;BME280;6169;44.158;22.788;2022-11-02T03:02:32;101458.47;;;12.35;54.90
12213;BME280;6169;44.158;22.788;2022-11-02T03:07:35;101463.94;;;12.10;55.11
12213;BME280;6169;44.158;22.788;2022-11-02T03:12:44;101463.44;;;12.20;54.53
12213;BME280;6169;44.158;22.788;2022-11-02T03:18:00;101462.28;;;12.09;53.96
12213;BME280;6169;44.158;22.788;2022-11-02T03:23:08;101455.28;;;11.95;53.56
12213;BME280;6169;44.158;22.788;2022-11-02T03:28:17;101460.44;;;12.03;54.46
12213;BME280;6169;44.158;22.788;2022-11-02T03:33:26;101470.63;;;12.07;53.61
12213;BME280;6169;44.158;22.788;2022-11-02T03:38:36;101469.91;;;11.94;54.48
12213;BME280;6169;44.158;22.788;2022-11-02T03:43:43;101469.75;;;11.88;53.83
12213;BME280;6169;44.158;22.788;2022-11-02T03:48:49;101463.41;;;11.69;53.52
12213;BME280;6169;44.158;22.788;2022-11-02T03:53:55;101459.59;;;11.77;52.36
12213;BME280;6169;44.158;22.788;2022-11-02T03:59:00;101453.38;;;11.63;53.28
12213;BME280;6169;44.158;22.788;2022-11-02T04:04:05;101474.41;;;11.43;55.05
12213;BME280;6169;44.158;22.788;2022-11-02T04:09:08;101475.22;;;11.43;54.19
12213;BME280;6169;44.158;22.788;2022-11-02T04:14:11;101479.03;;;11.36;54.72
12213;BME280;6169;44.158;22.788;2022-11-02T04:19:32;101481.88;;;11.02;55.32
12213;BME280;6169;44.158;22.788;2022-11-02T04:24:34;101480.94;;;11.74;53.78
12213;BME280;6169;44.158;22.788;2022-11-02T04:29:54;101486.16;;;11.75;52.89
12213;BME280;6169;44.158;22.788;2022-11-02T04:34:58;101489.97;;;11.61;52.78
12213;BME280;6169;44.158;22.788;2022-11-02T04:40:00;101473.66;;;11.61;53.74
12213;BME280;6169;44.158;22.788;2022-11-02T04:45:03;101477.91;;;11.05;54.62
12213;BME280;6169;44.158;22.788;2022-11-02T04:50:08;101483.28;;;11.18;53.73
12213;BME280;6169;44.158;22.788;2022-11-02T04:55:11;101473.44;;;11.62;52.89
12213;BME280;6169;44.158;22.788;2022-11-02T05:00:14;101486.00;;;11.63;54.21
12213;BME280;6169;44.158;22.788;2022-11-02T05:05:18;101488.00;;;11.36;53.36
12213;BME280;6169;44.158;22.788;2022-11-02T05:10:21;101494.25;;;10.85;56.52
12213;BME280;6169;44.158;22.788;2022-11-02T05:15:23;101496.03;;;11.63;57.07
12213;BME280;6169;44.158;22.788;2022-11-02T05:20:27;101487.47;;;11.21;56.24
12213;BME280;6169;44.158;22.788;2022-11-02T05:25:30;101495.63;;;11.21;55.64
12213;BME280;6169;44.158;22.788;2022-11-02T05:30:32;101506.97;;;11.50;55.34
12213;BME280;6169;44.158;22.788;2022-11-02T05:35:36;101495.28;;;11.42;54.67
12213;BME280;6169;44.158;22.788;2022-11-02T05:40:39;101513.97;;;11.77;54.32
12213;BME280;6169;44.158;22.788;2022-11-02T05:45:41;101509.75;;;11.43;55.28
12213;BME280;6169;44.158;22.788;2022-11-02T05:50:45;101523.25;;;11.63;56.07
12213;BME280;6169;44.158;22.788;2022-11-02T05:55:48;101526.13;;;12.06;57.20
12213;BME280;6169;44.158;22.788;2022-11-02T06:00:50;101528.34;;;12.16;57.13
12213;BME280;6169;44.158;22.788;2022-11-02T06:05:56;101523.59;;;12.11;56.52
12213;BME280;6169;44.158;22.788;2022-11-02T06:11:03;101519.66;;;12.32;57.05
12213;BME280;6169;44.158;22.788;2022-11-02T06:16:07;101525.53;;;12.54;59.36
12213;BME280;6169;44.158;22.788;2022-11-02T06:21:11;101525.41;;;12.93;59.28
12213;BME280;6169;44.158;22.788;2022-11-02T06:26:15;101529.88;;;13.24;59.25
12213;BME280;6169;44.158;22.788;2022-11-02T06:31:17;101531.28;;;13.63;59.65
12213;BME280;6169;44.158;22.788;2022-11-02T06:36:21;101535.44;;;13.96;58.53
12213;BME280;6169;44.158;22.788;2022-11-02T06:41:24;101542.25;;;14.05;58.50
12213;BME280;6169;44.158;22.788;2022-11-02T06:46:26;101537.94;;;14.40;57.61
12213;BME280;6169;44.158;22.788;2022-11-02T06:51:30;101534.03;;;14.59;56.67
12213;BME280;6169;44.158;22.788;2022-11-02T06:56:33;101539.25;;;15.08;56.17
12213;BME280;6169;44.158;22.788;2022-11-02T07:01:35;101525.22;;;15.16;55.73
12213;BME280;6169;44.158;22.788;2022-11-02T07:06:39;101534.00;;;15.70;53.98
12213;BME280;6169;44.158;22.788;2022-11-02T07:11:41;101532.66;;;15.44;54.43
12213;BME280;6169;44.158;22.788;2022-11-02T07:16:44;101538.84;;;15.80;54.99
12213;BME280;6169;44.158;22.788;2022-11-02T07:21:48;101537.91;;;15.62;56.60
12213;BME280;6169;44.158;22.788;2022-11-02T07:26:50;101530.63;;;15.39;57.92
12213;BME280;6169;44.158;22.788;2022-11-02T07:31:53;101534.88;;;15.87;56.90
12213;BME280;6169;44.158;22.788;2022-11-02T07:36:57;101533.09;;;16.10;55.26
12213;BME280;6169;44.158;22.788;2022-11-02T07:41:59;101534.00;;;16.49;54.61
12213;BME280;6169;44.158;22.788;2022-11-02T07:47:01;101531.94;;;16.90;53.67
12213;BME280;6169;44.158;22.788;2022-11-02T07:52:05;101532.41;;;17.48;51.55
12213;BME280;6169;44.158;22.788;2022-11-02T07:57:08;101533.69;;;17.62;51.04
12213;BME280;6169;44.158;22.788;2022-11-02T08:02:11;101526.72;;;17.77;50.87
12213;BME280;6169;44.158;22.788;2022-11-02T08:07:16;101526.41;;;18.00;49.25
12213;BME280;6169;44.158;22.788;2022-11-02T08:12:18;101512.88;;;18.21;49.34
12213;BME280;6169;44.158;22.788;2022-11-02T08:17:21;101510.97;;;18.58;47.58
12213;BME280;6169;44.158;22.788;2022-11-02T08:22:25;101506.09;;;18.71;46.69
12213;BME280;6169;44.158;22.788;2022-11-02T08:27:27;101506.31;;;19.07;46.55
12213;BME280;6169;44.158;22.788;2022-11-02T08:32:30;101496.59;;;19.52;45.02
12213;BME280;6169;44.158;22.788;2022-11-02T08:37:34;101496.84;;;19.55;44.35
12213;BME280;6169;44.158;22.788;2022-11-02T08:42:36;101501.34;;;20.07;44.30
12213;BME280;6169;44.158;22.788;2022-11-02T08:47:39;101498.31;;;20.34;44.19
12213;BME280;6169;44.158;22.788;2022-11-02T08:52:43;101492.25;;;20.68;43.63
12213;BME280;6169;44.158;22.788;2022-11-02T08:57:46;101486.16;;;20.76;42.75
12213;BME280;6169;44.158;22.788;2022-11-02T09:03:00;101484.84;;;21.34;41.00
12213;BME280;6169;44.158;22.788;2022-11-02T09:08:05;101475.97;;;21.42;38.77
12213;BME280;6169;44.158;22.788;2022-11-02T09:13:10;101481.41;;;21.57;38.68
12213;BME280;6169;44.158;22.788;2022-11-02T09:18:13;101477.88;;;21.96;37.22
12213;BME280;6169;44.158;22.788;2022-11-02T09:23:17;101474.63;;;22.47;36.45
12213;BME280;6169;44.158;22.788;2022-11-02T09:28:20;101467.63;;;22.84;34.46
12213;BME280;6169;44.158;22.788;2022-11-02T09:33:23;101457.53;;;23.17;34.23
12213;BME280;6169;44.158;22.788;2022-11-02T09:38:27;101449.00;;;23.33;32.58
12213;BME280;6169;44.158;22.788;2022-11-02T09:43:39;101437.50;;;23.82;31.90
12213;BME280;6169;44.158;22.788;2022-11-02T09:48:46;101431.75;;;23.92;31.05
12213;BME280;6169;44.158;22.788;2022-11-02T09:53:57;101427.06;;;24.07;29.56
12213;BME280;6169;44.158;22.788;2022-11-02T09:59:04;101429.88;;;24.21;28.54
12213;BME280;6169;44.158;22.788;2022-11-02T10:04:46;101425.22;;;24.90;27.59
12213;BME280;6169;44.158;22.788;2022-11-02T10:09:59;101420.38;;;24.96;26.71
12213;BME280;6169;44.158;22.788;2022-11-02T10:15:08;101399.06;;;25.19;26.25
12213;BME280;6169;44.158;22.788;2022-11-02T10:20:21;101399.34;;;25.54;25.87
12213;BME280;6169;44.158;22.788;2022-11-02T10:25:27;101401.50;;;26.24;23.79
12213;BME280;6169;44.158;22.788;2022-11-02T10:30:31;101392.06;;;26.11;21.59
12213;BME280;6169;44.158;22.788;2022-11-02T10:35:38;101392.06;;;26.11;20.66
12213;BME280;6169;44.158;22.788;2022-11-02T10:40:56;101387.59;;;26.24;20.43
12213;BME280;6169;44.158;22.788;2022-11-02T10:46:22;101379.47;;;26.45;20.11
12213;BME280;6169;44.158;22.788;2022-11-02T10:51:28;101379.09;;;26.38;19.42
12213;BME280;6169;44.158;22.788;2022-11-02T10:56:32;101374.19;;;26.35;19.43
12213;BME280;6169;44.158;22.788;2022-11-02T11:01:35;101377.09;;;26.70;18.78
12213;BME280;6169;44.158;22.788;2022-11-02T11:06:39;101368.50;;;26.97;18.21
12213;BME280;6169;44.158;22.788;2022-11-02T11:11:55;101362.34;;;26.69;18.64
12213;BME280;6169;44.158;22.788;2022-11-02T11:16:58;101354.31;;;26.68;18.59
12213;BME280;6169;44.158;22.788;2022-11-02T11:22:02;101317.28;;;26.50;18.55
12213;BME280;6169;44.158;22.788;2022-11-02T11:27:25;101350.47;;;27.03;17.32
12213;BME280;6169;44.158;22.788;2022-11-02T11:32:28;101350.63;;;26.90;16.84
12213;BME280;6169;44.158;22.788;2022-11-02T11:37:32;101347.84;;;26.98;19.41
12213;BME280;6169;44.158;22.788;2022-11-02T11:42:36;101342.88;;;26.78;20.36
12213;BME280;6169;44.158;22.788;2022-11-02T11:47:40;101353.25;;;27.03;19.93
12213;BME280;6169;44.158;22.788;2022-11-02T11:52:43;101342.56;;;26.88;20.16
12213;BME280;6169;44.158;22.788;2022-11-02T11:58:04;101352.75;;;26.93;19.82
12213;BME280;6169;44.158;22.788;2022-11-02T12:03:08;101357.38;;;26.57;19.87
12213;BME280;6169;44.158;22.788;2022-11-02T12:08:27;101357.34;;;26.97;20.64
12213;BME280;6169;44.158;22.788;2022-11-02T12:13:59;101349.72;;;26.63;18.61
12213;BME280;6169;44.158;22.788;2022-11-02T12:19:15;101345.28;;;26.13;18.43
12213;BME280;6169;44.158;22.788;2022-11-02T12:24:48;101355.84;;;26.03;18.55
12213;BME280;6169;44.158;22.788;2022-11-02T12:43:37;101336.59;;;26.55;19.74
12213;BME280;6169;44.158;22.788;2022-11-02T12:48:46;101328.06;;;25.71;20.00
12213;BME280;6169;44.158;22.788;2022-11-02T12:53:54;101329.72;;;26.12;20.02
12213;BME280;6169;44.158;22.788;2022-11-02T12:58:59;101333.56;;;26.82;20.61
12213;BME280;6169;44.158;22.788;2022-11-02T13:04:09;101335.22;;;26.35;20.76
12213;BME280;6169;44.158;22.788;2022-11-02T13:09:18;101317.25;;;26.41;21.21
12213;BME280;6169;44.158;22.788;2022-11-02T13:14:26;101319.94;;;26.64;20.04
12213;BME280;6169;44.158;22.788;2022-11-02T13:19:33;101315.19;;;26.73;20.45
12213;BME280;6169;44.158;22.788;2022-11-02T13:24:41;101308.59;;;26.11;20.02
12213;BME280;6169;44.158;22.788;2022-11-02T13:29:47;101321.09;;;25.60;19.88
12213;BME280;6169;44.158;22.788;2022-11-02T13:34:53;101318.50;;;25.41;20.51
12213;BME280;6169;44.158;22.788;2022-11-02T13:39:58;101309.66;;;25.39;20.70
12213;BME280;6169;44.158;22.788;2022-11-02T13:45:41;101301.66;;;25.38;21.04
12213;BME280;6169;44.158;22.788;2022-11-02T13:50:49;101312.72;;;24.79;21.79
12213;BME280;6169;44.158;22.788;2022-11-02T13:55:55;101302.69;;;24.69;22.14
12213;BME280;6169;44.158;22.788;2022-11-02T14:01:02;101296.31;;;25.05;22.19
12213;BME280;6169;44.158;22.788;2022-11-02T14:06:09;101295.81;;;24.67;22.92
12213;BME280;6169;44.158;22.788;2022-11-02T14:11:33;101296.84;;;25.07;22.70
12213;BME280;6169;44.158;22.788;2022-11-02T14:16:42;101304.94;;;24.67;23.74
12213;BME280;6169;44.158;22.788;2022-11-02T14:22:04;101303.81;;;24.68;24.01
12213;BME280;6169;44.158;22.788;2022-11-02T14:27:26;101305.59;;;24.23;24.49
12213;BME280;6169;44.158;22.788;2022-11-02T14:32:41;101295.81;;;24.39;24.69
12213;BME280;6169;44.158;22.788;2022-11-02T14:38:03;101301.69;;;24.51;24.56
12213;BME280;6169;44.158;22.788;2022-11-02T14:43:29;101295.72;;;24.30;25.05
12213;BME280;6169;44.158;22.788;2022-11-02T14:48:46;101290.19;;;24.03;24.66
12213;BME280;6169;44.158;22.788;2022-11-02T14:53:55;101289.25;;;23.61;24.75
12213;BME280;6169;44.158;22.788;2022-11-02T14:58:58;101291.91;;;23.99;24.51
12213;BME280;6169;44.158;22.788;2022-11-02T15:04:06;101290.97;;;23.89;24.77
12213;BME280;6169;44.158;22.788;2022-11-02T15:09:09;101300.59;;;23.78;24.92
12213;BME280;6169;44.158;22.788;2022-11-02T15:14:31;101297.28;;;23.62;25.13
12213;BME280;6169;44.158;22.788;2022-11-02T15:19:40;101290.59;;;23.31;25.33
12213;BME280;6169;44.158;22.788;2022-11-02T15:24:46;101296.63;;;23.19;25.80
12213;BME280;6169;44.158;22.788;2022-11-02T15:29:51;101294.50;;;23.30;25.82
12213;BME280;6169;44.158;22.788;2022-11-02T15:34:56;101300.56;;;23.13;26.12
12213;BME280;6169;44.158;22.788;2022-11-02T15:39:59;101307.69;;;23.19;26.29
12213;BME280;6169;44.158;22.788;2022-11-02T15:45:35;101311.50;;;23.04;27.11
12213;BME280;6169;44.158;22.788;2022-11-02T15:50:49;101313.72;;;23.02;27.71
12213;BME280;6169;44.158;22.788;2022-11-02T15:56:22;101312.22;;;22.53;28.44
12213;BME280;6169;44.158;22.788;2022-11-02T16:01:28;101329.00;;;22.99;28.62
12213;BME280;6169;44.158;22.788;2022-11-02T16:06:35;101336.06;;;23.30;28.22
12213;BME280;6169;44.158;22.788;2022-11-02T16:11:38;101338.50;;;23.12;28.76
12213;BME280;6169;44.158;22.788;2022-11-02T16:16:49;101343.00;;;23.08;30.22
12213;BME280;6169;44.158;22.788;2022-11-02T16:21:53;101338.66;;;22.35;32.06
12213;BME280;6169;44.158;22.788;2022-11-02T16:26:55;101336.91;;;22.20;32.97
12213;BME280;6169;44.158;22.788;2022-11-02T16:31:58;101347.56;;;22.08;33.56
12213;BME280;6169;44.158;22.788;2022-11-02T16:37:04;101334.25;;;22.10;33.42
12213;BME280;6169;44.158;22.788;2022-11-02T16:42:11;101346.53;;;21.99;33.61
12213;BME280;6169;44.158;22.788;2022-11-02T16:47:16;101356.16;;;22.30;33.39
12213;BME280;6169;44.158;22.788;2022-11-02T16:52:21;101357.31;;;22.00;34.00
12213;BME280;6169;44.158;22.788;2022-11-02T16:57:25;101372.13;;;21.46;34.81
12213;BME280;6169;44.158;22.788;2022-11-02T17:02:31;101345.28;;;21.86;34.06
12213;BME280;6169;44.158;22.788;2022-11-02T17:07:39;101388.75;;;22.04;34.18
12213;BME280;6169;44.158;22.788;2022-11-02T17:12:43;101393.94;;;22.40;33.58
12213;BME280;6169;44.158;22.788;2022-11-02T17:17:46;101396.75;;;22.35;34.02
12213;BME280;6169;44.158;22.788;2022-11-02T17:22:52;101405.53;;;21.84;34.73
12213;BME280;6169;44.158;22.788;2022-11-02T17:27:57;101407.28;;;22.04;34.71
12213;BME280;6169;44.158;22.788;2022-11-02T17:33:07;101404.66;;;21.54;35.47
12213;BME280;6169;44.158;22.788;2022-11-02T17:38:12;101400.09;;;21.74;35.24
12213;BME280;6169;44.158;22.788;2022-11-02T17:43:14;101391.91;;;21.58;34.97
12213;BME280;6169;44.158;22.788;2022-11-02T17:48:16;101399.06;;;21.59;35.21
12213;BME280;6169;44.158;22.788;2022-11-02T17:53:20;101308.34;;;20.53;36.00
12213;BME280;6169;44.158;22.788;2022-11-02T17:58:23;101395.53;;;21.09;36.20
12213;BME280;6169;44.158;22.788;2022-11-02T18:03:25;101404.56;;;21.20;36.12
12213;BME280;6169;44.158;22.788;2022-11-02T18:08:29;101401.97;;;21.39;35.70
12213;BME280;6169;44.158;22.788;2022-11-02T18:13:51;101402.22;;;21.42;35.46
12213;BME280;6169;44.158;22.788;2022-11-02T18:18:54;101399.69;;;21.01;36.27
12213;BME280;6169;44.158;22.788;2022-11-02T18:23:57;101395.66;;;21.33;35.61
12213;BME280;6169;44.158;22.788;2022-11-02T18:29:00;101409.28;;;21.19;35.56
12213;BME280;6169;44.158;22.788;2022-11-02T18:34:03;101414.28;;;21.12;35.89
12213;BME280;6169;44.158;22.788;2022-11-02T18:39:07;101424.16;;;21.29;35.50
12213;BME280;6169;44.158;22.788;2022-11-02T18:44:09;101436.50;;;20.71;36.14
12213;BME280;6169;44.158;22.788;2022-11-02T18:49:13;101436.59;;;20.20;37.02
12213;BME280;6169;44.158;22.788;2022-11-02T18:54:17;101431.63;;;20.12;37.13
12213;BME280;6169;44.158;22.788;2022-11-02T18:59:19;101439.00;;;20.73;36.04
12213;BME280;6169;44.158;22.788;2022-11-02T19:04:21;101438.13;;;20.77;35.93
12213;BME280;6169;44.158;22.788;2022-11-02T19:09:25;101445.97;;;19.99;37.07
12213;BME280;6169;44.158;22.788;2022-11-02T19:14:32;101441.56;;;20.13;36.42
12213;BME280;6169;44.158;22.788;2022-11-02T19:19:35;101452.59;;;19.87;36.68
12213;BME280;6169;44.158;22.788;2022-11-02T19:24:40;101459.41;;;19.59;37.14
12213;BME280;6169;44.158;22.788;2022-11-02T19:29:42;101465.66;;;19.24;37.76
12213;BME280;6169;44.158;22.788;2022-11-02T19:34:45;101475.34;;;19.42;37.43
12213;BME280;6169;44.158;22.788;2022-11-02T19:39:48;101466.22;;;19.26;37.74
12213;BME280;6169;44.158;22.788;2022-11-02T19:44:50;101469.81;;;19.37;37.75
12213;BME280;6169;44.158;22.788;2022-11-02T19:49:53;101473.84;;;19.09;38.41
12213;BME280;6169;44.158;22.788;2022-11-02T19:54:56;101472.75;;;19.04;38.66
12213;BME280;6169;44.158;22.788;2022-11-02T19:59:58;101480.34;;;18.87;38.96
12213;BME280;6169;44.158;22.788;2022-11-02T20:05:01;101490.91;;;18.63;39.70
12213;BME280;6169;44.158;22.788;2022-11-02T20:10:05;101491.91;;;18.89;39.21
12213;BME280;6169;44.158;22.788;2022-11-02T20:15:08;101480.03;;;18.36;40.61
12213;BME280;6169;44.158;22.788;2022-11-02T20:20:12;101504.63;;;18.58;40.41
12213;BME280;6169;44.158;22.788;2022-11-02T20:25:15;101510.28;;;18.41;40.91
12213;BME280;6169;44.158;22.788;2022-11-02T20:30:18;101500.34;;;18.72;40.16
12213;BME280;6169;44.158;22.788;2022-11-02T20:35:21;101511.09;;;18.36;40.88
12213;BME280;6169;44.158;22.788;2022-11-02T20:40:26;101516.50;;;18.26;41.09
12213;BME280;6169;44.158;22.788;2022-11-02T20:45:32;101514.31;;;18.66;40.57
12213;BME280;6169;44.158;22.788;2022-11-02T20:50:34;101513.53;;;18.70;40.35
12213;BME280;6169;44.158;22.788;2022-11-02T20:55:38;101520.25;;;18.47;40.69
12213;BME280;6169;44.158;22.788;2022-11-02T21:00:42;101509.34;;;18.63;40.40
12213;BME280;6169;44.158;22.788;2022-11-02T21:05:44;101515.91;;;18.24;41.14
12213;BME280;6169;44.158;22.788;2022-11-02T21:10:54;101512.56;;;18.54;40.30
12213;BME280;6169;44.158;22.788;2022-11-02T21:16:01;101521.72;;;18.65;39.73
12213;BME280;6169;44.158;22.788;2022-11-02T21:21:04;101523.34;;;17.97;40.21
12213;BME280;6169;44.158;22.788;2022-11-02T21:26:10;101529.94;;;17.68;41.00
12213;BME280;6169;44.158;22.788;2022-11-02T21:31:15;101528.94;;;17.80;40.57
12213;BME280;6169;44.158;22.788;2022-11-02T21:36:18;101515.84;;;17.60;41.30
12213;BME280;6169;44.158;22.788;2022-11-02T21:41:22;101519.84;;;17.52;41.30
12213;BME280;6169;44.158;22.788;2022-11-02T21:46:27;101531.22;;;17.39;42.30
12213;BME280;6169;44.158;22.788;2022-11-02T21:51:29;101523.66;;;17.07;43.98
12213;BME280;6169;44.158;22.788;2022-11-02T21:56:33;101523.66;;;17.07;44.04
12213;BME280;6169;44.158;22.788;2022-11-02T22:01:36;101533.19;;;16.82;44.76
12213;BME280;6169;44.158;22.788;2022-11-02T22:06:50;101533.53;;;16.69;44.92
12213;BME280;6169;44.158;22.788;2022-11-02T22:11:53;101526.59;;;16.62;45.63
12213;BME280;6169;44.158;22.788;2022-11-02T22:17:10;101528.22;;;16.46;45.64
12213;BME280;6169;44.158;22.788;2022-11-02T22:22:12;101532.59;;;16.47;45.90
12213;BME280;6169;44.158;22.788;2022-11-02T22:27:15;101533.69;;;16.29;46.39
12213;BME280;6169;44.158;22.788;2022-11-02T22:32:18;101526.06;;;16.31;46.51
12213;BME280;6169;44.158;22.788;2022-11-02T22:37:21;101526.72;;;16.38;46.35
12213;BME280;6169;44.158;22.788;2022-11-02T22:42:42;101535.69;;;16.33;46.75
12213;BME280;6169;44.158;22.788;2022-11-02T22:47:44;101542.22;;;16.61;45.92
12213;BME280;6169;44.158;22.788;2022-11-02T22:52:46;101536.25;;;16.35;47.09
12213;BME280;6169;44.158;22.788;2022-11-02T22:57:53;101541.00;;;16.40;46.61
12213;BME280;6169;44.158;22.788;2022-11-02T23:02:55;101534.53;;;16.46;46.32
12213;BME280;6169;44.158;22.788;2022-11-02T23:07:58;101548.78;;;16.14;46.68
12213;BME280;6169;44.158;22.788;2022-11-02T23:13:01;101554.50;;;16.13;46.79
12213;BME280;6169;44.158;22.788;2022-11-02T23:18:04;101551.94;;;16.06;47.10
12213;BME280;6169;44.158;22.788;2022-11-02T23:23:06;101557.19;;;16.25;46.72
12213;BME280;6169;44.158;22.788;2022-11-02T23:28:27;101550.16;;;16.63;45.96
12213;BME280;6169;44.158;22.788;2022-11-02T23:33:46;101559.28;;;16.51;46.00
12213;BME280;6169;44.158;22.788;2022-11-02T23:38:49;101561.28;;;16.39;46.15
12213;BME280;6169;44.158;22.788;2022-11-02T23:44:10;101565.88;;;16.05;45.87
12213;BME280;6169;44.158;22.788;2022-11-02T23:49:15;101563.44;;;15.91;46.17
12213;BME280;6169;44.158;22.788;2022-11-02T23:54:17;101575.28;;;15.80;45.41
12213;BME280;6169;44.158;22.788;2022-11-02T23:59:38;101549.06;;;15.44;46.89
